createdAt,value
2022-09-27T00:00:47.371Z,100.00
2022-09-27T00:06:01.666Z,100.00
2022-09-27T00:11:05.814Z,100.00
2022-09-27T00:16:08.535Z,100.00
2022-09-27T00:21:14.461Z,100.00
2022-09-27T00:26:17.227Z,100.00
2022-09-27T00:31:22.227Z,100.00
2022-09-27T00:36:27.535Z,100.00
2022-09-27T00:41:32.580Z,100.00
2022-09-27T00:46:39.752Z,100.00
2022-09-27T00:51:47.032Z,100.00
2022-09-27T00:56:51.411Z,100.00
2022-09-27T01:01:54.382Z,100.00
2022-09-27T01:06:58.489Z,100.00
2022-09-27T01:12:12.097Z,100.00
2022-09-27T01:17:33.589Z,100.00
2022-09-27T01:22:47.414Z,100.00
2022-09-27T01:28:11.807Z,100.00
2022-09-27T01:33:27.221Z,100.00
2022-09-27T01:38:38.443Z,100.00
2022-09-27T01:43:49.865Z,100.00
2022-09-27T01:49:03.228Z,100.00
2022-09-27T01:54:11.251Z,100.00
2022-09-27T01:59:39.202Z,100.00
2022-09-27T02:05:13.665Z,100.00
2022-09-27T02:10:20.510Z,100.00
2022-09-27T02:15:33.622Z,100.00
2022-09-27T02:20:59.816Z,100.00
2022-09-27T02:26:05.002Z,100.00
2022-09-27T02:31:07.891Z,100.00
2022-09-27T02:36:13.789Z,100.00
2022-09-27T02:41:17.534Z,100.00
2022-09-27T02:46:42.884Z,100.00
2022-09-27T02:52:01.113Z,100.00
2022-09-27T02:57:14.369Z,100.00
2022-09-27T03:02:45.716Z,100.00
2022-09-27T03:08:08.998Z,100.00
2022-09-27T03:13:12.964Z,100.00
2022-09-27T03:18:16.397Z,100.00
2022-09-27T03:23:52.599Z,100.00
2022-09-27T03:28:55.417Z,100.00
2022-09-27T03:33:58.191Z,100.00
2022-09-27T03:39:02.651Z,100.00
2022-09-27T03:44:05.476Z,100.00
2022-09-27T03:49:08.423Z,100.00
2022-09-27T03:54:12.621Z,100.00
2022-09-27T03:59:15.485Z,100.00
2022-09-27T04:04:41.023Z,100.00
2022-09-27T04:09:46.824Z,100.00
2022-09-27T04:14:49.525Z,100.00
2022-09-27T04:20:12.688Z,100.00
2022-09-27T04:25:19.959Z,100.00
2022-09-27T04:30:47.549Z,100.00
2022-09-27T04:36:29.397Z,100.00
2022-09-27T04:41:38.531Z,100.00
2022-09-27T04:46:41.586Z,100.00
2022-09-27T04:51:44.513Z,100.00
2022-09-27T04:56:49.608Z,100.00
2022-09-27T05:01:52.470Z,100.00
2022-09-27T05:07:28.681Z,100.00
2022-09-27T05:12:39.207Z,100.00
2022-09-27T05:17:42.011Z,100.00
2022-09-27T05:23:04.434Z,100.00
2022-09-27T05:28:09.441Z,100.00
2022-09-27T05:33:13.240Z,100.00
2022-09-27T05:38:27.239Z,100.00
2022-09-27T05:43:34.638Z,100.00
2022-09-27T05:48:38.272Z,100.00
2022-09-27T05:53:43.497Z,100.00
2022-09-27T05:58:56.019Z,100.00
2022-09-27T06:03:59.366Z,100.00
2022-09-27T06:09:41.791Z,100.00
2022-09-27T06:14:46.064Z,100.00
2022-09-27T06:19:53.790Z,100.00
2022-09-27T06:24:56.581Z,100.00
2022-09-27T06:30:04.488Z,100.00
2022-09-27T06:35:24.946Z,100.00
2022-09-27T06:40:28.595Z,100.00
2022-09-27T06:45:56.370Z,100.00
2022-09-27T06:51:18.847Z,100.00
2022-09-27T06:56:23.282Z,100.00
2022-09-27T07:01:31.608Z,100.00
2022-09-27T07:06:50.301Z,100.00
2022-09-27T07:11:58.336Z,100.00
2022-09-27T07:17:03.505Z,100.00
2022-09-27T07:22:14.908Z,100.00
2022-09-27T07:27:22.137Z,100.00
2022-09-27T07:32:26.386Z,100.00
2022-09-27T07:37:34.567Z,100.00
2022-09-27T07:42:39.181Z,100.00
2022-09-27T07:47:43.515Z,100.00
2022-09-27T07:52:53.335Z,100.00
2022-09-27T07:58:14.914Z,100.00
2022-09-27T08:03:21.624Z,100.00
2022-09-27T08:08:25.345Z,100.00
2022-09-27T08:13:53.885Z,100.00
2022-09-27T08:19:02.864Z,100.00
2022-09-27T08:24:20.379Z,100.00
2022-09-27T08:29:41.646Z,100.00
2022-09-27T08:34:46.564Z,100.00
2022-09-27T08:39:49.583Z,100.00
2022-09-27T08:45:03.665Z,100.00
2022-09-27T08:50:26.389Z,100.00
2022-09-27T08:55:33.378Z,100.00
2022-09-27T09:00:36.504Z,100.00
2022-09-27T09:05:41.392Z,100.00
2022-09-27T09:11:11.919Z,100.00
2022-09-27T09:16:30.506Z,100.00
2022-09-27T09:22:07.483Z,100.00
2022-09-27T09:27:20.512Z,100.00
2022-09-27T09:32:39.092Z,100.00
2022-09-27T09:37:48.424Z,100.00
2022-09-27T09:42:58.286Z,100.00
2022-09-27T09:48:10.077Z,100.00
2022-09-27T09:53:19.302Z,100.00
2022-09-27T09:58:27.487Z,100.00
2022-09-27T10:03:36.438Z,100.00
2022-09-27T10:08:41.432Z,100.00
2022-09-27T10:14:12.501Z,99.02
2022-09-27T10:19:19.538Z,92.64
2022-09-27T10:24:25.594Z,90.35
2022-09-27T10:29:44.572Z,89.91
2022-09-27T10:34:53.905Z,90.26
2022-09-27T10:40:00.506Z,90.91
2022-09-27T10:45:23.645Z,91.18
2022-09-27T10:50:50.263Z,90.34
2022-09-27T10:56:03.500Z,92.62
2022-09-27T11:01:09.726Z,90.58
2022-09-27T11:06:32.069Z,91.08
2022-09-27T11:11:37.506Z,90.05
2022-09-27T11:16:51.858Z,91.07
2022-09-27T11:22:02.604Z,91.30
2022-09-27T11:27:24.093Z,90.38
2022-09-27T11:32:36.511Z,87.10
2022-09-27T11:37:49.446Z,86.33
2022-09-27T11:43:28.506Z,84.30
2022-09-27T11:48:50.381Z,83.23
2022-09-27T11:54:06.763Z,84.74
2022-09-27T11:59:38.355Z,84.85
2022-09-27T12:05:01.987Z,83.88
2022-09-27T12:10:13.784Z,82.88
2022-09-27T12:15:22.195Z,81.11
2022-09-27T12:20:31.082Z,81.09
2022-09-27T12:25:40.107Z,79.92
2022-09-27T12:31:28.012Z,80.19
2022-09-27T12:36:38.799Z,79.45
2022-09-27T12:41:49.180Z,77.69
2022-09-27T12:47:21.535Z,79.18
2022-09-27T12:52:31.583Z,78.06
2022-09-27T12:57:47.652Z,78.75
2022-09-27T13:03:26.284Z,79.30
2022-09-27T13:08:57.950Z,76.12
2022-09-27T13:14:29.586Z,75.66
2022-09-27T13:19:43.286Z,78.55
2022-09-27T13:24:50.977Z,80.59
2022-09-27T13:30:49.034Z,80.83
2022-09-27T13:36:17.469Z,81.01
2022-09-27T13:41:23.597Z,81.03
2022-09-27T13:46:35.411Z,80.14
2022-09-27T13:51:44.546Z,80.90
2022-09-27T13:56:53.415Z,78.89
2022-09-27T14:02:12.687Z,80.78
2022-09-27T14:07:20.663Z,80.30
2022-09-27T14:12:33.097Z,79.37
2022-09-27T14:17:45.685Z,77.46
2022-09-27T14:22:56.649Z,77.27
2022-09-27T14:28:04.027Z,79.89
2022-09-27T14:33:29.801Z,80.85
2022-09-27T14:38:38.455Z,83.25
2022-09-27T14:43:56.247Z,83.08
2022-09-27T14:48:59.692Z,83.77
2022-09-27T14:54:05.585Z,84.92
2022-09-27T14:59:14.040Z,86.26
2022-09-27T15:04:17.484Z,88.38
2022-09-27T15:09:23.261Z,92.24
2022-09-27T15:14:28.106Z,94.48
2022-09-27T15:19:31.031Z,90.04
2022-09-27T15:30:20.129Z,89.31
2022-09-27T15:35:33.294Z,91.15
2022-09-27T15:41:05.938Z,100.00
2022-09-27T15:46:30.226Z,100.00
2022-09-27T15:51:40.626Z,100.00
2022-09-27T15:56:44.918Z,100.00
2022-09-27T16:01:48.171Z,100.00
2022-09-27T16:06:51.408Z,100.00
2022-09-27T16:11:55.583Z,100.00
2022-09-27T16:16:59.988Z,100.00
2022-09-27T16:22:03.628Z,100.00
2022-09-27T16:27:07.761Z,100.00
2022-09-27T16:32:11.036Z,100.00
2022-09-27T16:37:21.773Z,100.00
2022-09-27T16:42:27.324Z,100.00
2022-09-27T16:47:30.397Z,100.00
2022-09-27T16:52:33.863Z,100.00
2022-09-27T16:57:38.220Z,100.00
2022-09-27T17:02:41.411Z,100.00
2022-09-27T17:07:44.492Z,100.00
2022-09-27T17:12:49.020Z,100.00
2022-09-27T17:17:51.953Z,100.00
2022-09-27T17:22:54.741Z,100.00
2022-09-27T17:27:59.291Z,100.00
2022-09-27T17:33:02.021Z,100.00
2022-09-27T17:38:05.445Z,100.00
2022-09-27T17:43:09.482Z,100.00
2022-09-27T17:48:38.835Z,100.00
2022-09-27T17:53:42.787Z,100.00
2022-09-27T17:58:50.979Z,100.00
2022-09-27T18:03:55.695Z,100.00
2022-09-27T18:08:58.750Z,100.00
2022-09-27T18:14:03.492Z,100.00
2022-09-27T18:19:08.138Z,100.00
2022-09-27T18:24:11.632Z,100.00
2022-09-27T18:29:19.171Z,100.00
2022-09-27T18:34:25.160Z,100.00
2022-09-27T18:39:28.106Z,100.00
2022-09-27T18:44:32.962Z,100.00
2022-09-27T18:49:35.762Z,100.00
2022-09-27T18:54:40.890Z,100.00
2022-09-27T18:59:48.064Z,100.00
2022-09-27T19:04:51.204Z,100.00
2022-09-27T19:09:53.887Z,100.00
2022-09-27T19:14:57.932Z,100.00
2022-09-27T19:20:00.903Z,100.00
2022-09-27T19:25:03.632Z,100.00
2022-09-27T19:30:08.787Z,100.00
2022-09-27T19:35:12.335Z,100.00
2022-09-27T19:40:15.358Z,100.00
2022-09-27T19:45:20.891Z,100.00
2022-09-27T19:50:25.083Z,100.00
2022-09-27T19:55:27.779Z,100.00
2022-09-27T20:00:36.055Z,100.00
2022-09-27T20:05:38.806Z,100.00
2022-09-27T20:10:42.303Z,100.00
2022-09-27T20:15:47.421Z,100.00
2022-09-27T20:20:50.215Z,100.00
2022-09-27T20:25:53.239Z,100.00
2022-09-27T20:31:02.731Z,100.00
2022-09-27T20:36:05.923Z,100.00
2022-09-27T20:41:09.257Z,100.00
2022-09-27T20:46:15.537Z,100.00
2022-09-27T20:51:18.366Z,100.00
2022-09-27T20:56:23.421Z,100.00
2022-09-27T21:01:29.037Z,100.00
2022-09-27T21:06:35.544Z,100.00
2022-09-27T21:11:38.605Z,100.00
2022-09-27T21:16:42.902Z,100.00
2022-09-27T21:21:45.702Z,100.00
2022-09-27T21:26:48.472Z,100.00
2022-09-27T21:31:52.633Z,100.00
2022-09-27T21:36:55.447Z,100.00
2022-09-27T21:41:58.361Z,100.00
2022-09-27T21:47:02.546Z,100.00
2022-09-27T21:52:05.521Z,100.00
2022-09-27T21:57:08.564Z,100.00
2022-09-27T22:02:12.730Z,100.00
2022-09-27T22:07:15.483Z,100.00
2022-09-27T22:12:18.196Z,100.00
2022-09-27T22:17:23.010Z,100.00
2022-09-27T22:22:26.308Z,100.00
2022-09-27T22:27:29.354Z,100.00
2022-09-27T22:32:33.479Z,100.00
2022-09-27T22:37:37.203Z,100.00
2022-09-27T22:42:39.895Z,100.00
2022-09-27T22:47:43.982Z,100.00
2022-09-27T22:52:46.758Z,100.00
2022-09-27T22:57:49.487Z,100.00
2022-09-27T23:02:56.781Z,100.00
2022-09-27T23:07:59.484Z,100.00
2022-09-27T23:13:02.367Z,100.00
2022-09-27T23:18:07.025Z,100.00
2022-09-27T23:23:14.374Z,100.00
2022-09-27T23:28:16.936Z,100.00
2022-09-27T23:33:21.956Z,100.00
2022-09-27T23:38:24.673Z,100.00
2022-09-27T23:43:28.243Z,100.00
2022-09-27T23:48:33.925Z,100.00
2022-09-27T23:53:37.396Z,100.00
2022-09-27T23:58:42.391Z,100.00
